Terminal Aerodrome Forecast
Issued by NWS

Home | Current Version | Previous Version | Text Only | Print | Product List | Glossary On
Versions: 1 2 3 4 5 6 7 8 9 10 11 12 13 14
747
FTUS46 KSEW 280033 AAA
TAFCLM
TAF AMD
KCLM 280033Z 2801/2824 30012KT P6SM SCT250
     FM280800 29010KT P6SM OVC025
     FM281000 29006KT P6SM OVC012
      TEMPO 2812/2816 4SM BR OVC008
     FM281800 VRB04KT P6SM BKN020
     FM281900 32005KT P6SM SCT040 BKN080=

USA.gov is the U.S. government's official web portal to all federal, state and local government web resources and services.